createdAt,value
2023-02-05T00:00:11.902Z,-2.30
2023-02-05T00:05:13.576Z,-2.32
2023-02-05T00:10:18.460Z,-2.45
2023-02-05T00:15:20.135Z,-2.52
2023-02-05T00:20:21.904Z,-2.54
2023-02-05T00:25:23.502Z,-2.66
2023-02-05T00:30:25.090Z,-2.62
2023-02-05T00:35:26.682Z,-2.59
2023-02-05T00:40:29.452Z,-2.71
2023-02-05T00:45:35.279Z,-2.84
2023-02-05T00:50:37.393Z,-3.02
2023-02-05T00:55:39.014Z,-3.18
2023-02-05T01:00:40.647Z,-3.23
2023-02-05T01:05:43.077Z,-3.25
2023-02-05T01:10:47.370Z,-3.29
2023-02-05T01:15:49.458Z,-3.40
2023-02-05T01:20:51.956Z,-3.49
2023-02-05T01:25:53.639Z,-3.68
2023-02-05T01:30:55.401Z,-3.83
2023-02-05T01:35:57.081Z,-3.98
2023-02-05T01:41:00.026Z,-4.10
2023-02-05T01:46:24.092Z,-4.14
2023-02-05T01:51:30.276Z,-4.18
2023-02-05T01:56:55.787Z,-4.28
2023-02-05T02:02:00.885Z,-4.40
2023-02-05T02:07:04.097Z,-4.42
2023-02-05T02:12:06.805Z,-4.38
2023-02-05T02:17:10.933Z,-4.42
2023-02-05T02:22:34.733Z,-4.37
2023-02-05T02:27:45.830Z,-4.37
2023-02-05T02:32:58.295Z,-4.45
2023-02-05T02:38:20.877Z,-4.54
2023-02-05T02:43:32.152Z,-4.68
2023-02-05T02:48:37.945Z,-4.87
2023-02-05T02:53:45.202Z,-5.01
2023-02-05T02:59:09.292Z,-4.86
2023-02-05T03:04:21.947Z,-4.96
2023-02-05T03:09:39.322Z,-4.98
2023-02-05T03:14:42.258Z,-5.09
2023-02-05T03:19:46.672Z,-5.23
2023-02-05T03:24:48.275Z,-5.20
2023-02-05T03:29:50.500Z,-5.33
2023-02-05T03:35:03.074Z,-5.44
2023-02-05T03:40:31.460Z,-5.70
2023-02-05T03:45:40.994Z,-5.74
2023-02-05T03:50:55.754Z,-5.74
2023-02-05T03:56:13.551Z,-5.74
2023-02-05T04:01:15.615Z,-5.76
2023-02-05T04:06:19.095Z,-5.84
2023-02-05T04:11:23.063Z,-5.82
2023-02-05T04:16:25.849Z,-5.63
2023-02-05T04:21:28.998Z,-5.56
2023-02-05T04:26:30.751Z,-5.68
2023-02-05T04:31:37.584Z,-5.79
2023-02-05T04:36:40.210Z,-5.74
2023-02-05T04:41:42.510Z,-5.65
2023-02-05T04:46:44.185Z,-5.48
2023-02-05T04:51:45.861Z,-5.34
2023-02-05T04:56:47.495Z,-5.28
2023-02-05T05:01:49.135Z,-5.28
2023-02-05T05:06:50.801Z,-5.22
2023-02-05T05:11:53.194Z,-5.18
2023-02-05T05:16:54.799Z,-5.23
2023-02-05T05:21:56.412Z,-5.18
2023-02-05T05:26:59.402Z,-5.30
2023-02-05T05:32:01.076Z,-5.20
2023-02-05T05:37:02.732Z,-5.18
2023-02-05T05:42:24.043Z,-5.10
2023-02-05T05:47:25.698Z,-5.15
2023-02-05T05:52:27.312Z,-5.23
2023-02-05T05:57:29.035Z,-5.28
2023-02-05T06:02:30.662Z,-5.32
2023-02-05T06:07:32.318Z,-5.23
2023-02-05T06:12:33.919Z,-5.21
2023-02-05T06:17:35.610Z,-5.24
2023-02-05T06:22:37.283Z,-5.25
2023-02-05T06:27:38.920Z,-5.26
2023-02-05T06:32:40.510Z,-5.23
2023-02-05T06:37:49.245Z,-5.18
2023-02-05T06:42:52.883Z,-5.07
2023-02-05T06:47:56.070Z,-5.01
2023-02-05T06:52:58.273Z,-4.88
2023-02-05T06:57:59.957Z,-4.86
2023-02-05T07:03:01.778Z,-4.59
2023-02-05T07:08:04.186Z,-4.42
2023-02-05T07:13:06.115Z,-4.24
2023-02-05T07:18:07.848Z,-4.15
2023-02-05T07:23:09.519Z,-3.91
2023-02-05T07:28:11.302Z,-3.78
2023-02-05T07:33:13.036Z,-3.53
2023-02-05T07:38:14.685Z,-3.50
2023-02-05T07:43:16.342Z,-3.39
2023-02-05T07:48:17.931Z,-3.22
2023-02-05T07:53:19.969Z,-3.34
2023-02-05T07:58:21.869Z,-3.28
2023-02-05T08:03:23.509Z,-3.12
2023-02-05T08:08:25.177Z,-2.97
2023-02-05T08:13:26.817Z,-2.88
2023-02-05T08:18:28.401Z,-2.63
2023-02-05T08:23:30.238Z,-2.48
2023-02-05T08:28:31.834Z,-2.17
2023-02-05T08:33:33.430Z,-2.03
2023-02-05T08:38:35.092Z,-1.47
2023-02-05T08:43:36.688Z,-1.23
2023-02-05T08:48:38.421Z,-1.21
2023-02-05T08:53:40.597Z,-0.98
2023-02-05T08:58:42.536Z,-0.46
2023-02-05T09:03:45.030Z,-0.02
2023-02-05T09:08:47.015Z,0.23
2023-02-05T09:13:48.849Z,0.14
2023-02-05T09:18:50.812Z,0.14
2023-02-05T09:23:53.806Z,0.75
2023-02-05T09:28:55.466Z,1.13
2023-02-05T09:33:57.357Z,0.99
2023-02-05T09:39:12.967Z,0.84
2023-02-05T09:44:35.703Z,1.05
2023-02-05T09:50:03.685Z,1.20
2023-02-05T09:55:20.902Z,1.50
2023-02-05T10:00:32.306Z,1.27
2023-02-05T10:05:47.224Z,2.08
2023-02-05T10:10:53.614Z,2.14
2023-02-05T10:16:28.028Z,1.85
2023-02-05T10:21:58.021Z,1.28
2023-02-05T10:27:26.411Z,2.06
2023-02-05T10:32:44.940Z,1.99
2023-02-05T10:37:56.964Z,1.94
2023-02-05T10:43:19.436Z,1.97
2023-02-05T10:49:04.182Z,2.17
2023-02-05T10:54:06.273Z,2.34
2023-02-05T10:59:20.793Z,2.57
2023-02-05T11:04:34.925Z,2.82
2023-02-05T11:09:36.590Z,2.98
2023-02-05T11:14:43.621Z,3.23
2023-02-05T11:19:56.412Z,2.76
2023-02-05T11:25:13.659Z,2.25
2023-02-05T11:30:52.077Z,2.41
2023-02-05T11:35:54.610Z,2.65
2023-02-05T11:41:03.201Z,2.57
2023-02-05T11:46:08.484Z,2.64
2023-02-05T11:51:15.266Z,3.13
2023-02-05T11:56:25.092Z,3.11
2023-02-05T12:01:30.600Z,3.06
2023-02-05T12:06:40.815Z,3.96
2023-02-05T12:12:06.752Z,3.70
2023-02-05T12:17:23.577Z,2.74
2023-02-05T12:22:39.723Z,2.29
2023-02-05T12:28:26.303Z,2.40
2023-02-05T12:34:10.107Z,2.35
2023-02-05T12:39:29.855Z,2.63
2023-02-05T12:44:40.742Z,3.29
2023-02-05T12:50:10.611Z,3.68
2023-02-05T12:55:31.906Z,3.22
2023-02-05T13:00:51.708Z,4.04
2023-02-05T13:06:00.774Z,4.92
2023-02-05T13:11:10.598Z,4.66
2023-02-05T13:16:16.344Z,4.46
2023-02-05T13:21:38.657Z,4.72
2023-02-05T13:27:03.090Z,4.32
2023-02-05T13:32:15.677Z,5.36
2023-02-05T13:37:29.982Z,4.38
2023-02-05T13:42:49.495Z,3.42
2023-02-05T13:47:54.105Z,3.16
2023-02-05T13:53:06.179Z,3.38
2023-02-05T13:58:24.285Z,3.07
2023-02-05T14:03:33.732Z,2.93
2023-02-05T14:08:38.835Z,2.89
2023-02-05T14:13:40.550Z,3.09
2023-02-05T14:18:44.953Z,2.79
2023-02-05T14:23:46.526Z,2.61
2023-02-05T14:28:50.689Z,2.42
2023-02-05T14:33:52.333Z,2.16
2023-02-05T14:39:00.932Z,2.30
2023-02-05T14:44:18.031Z,2.63
2023-02-05T14:49:26.867Z,2.26
2023-02-05T14:54:41.613Z,2.24
2023-02-05T14:59:56.070Z,2.24
2023-02-05T15:04:58.834Z,1.93
2023-02-05T15:10:06.817Z,1.67
2023-02-05T15:15:28.606Z,1.46
2023-02-05T15:20:33.803Z,1.37
2023-02-05T15:25:47.256Z,1.22
2023-02-05T15:31:12.433Z,0.96
2023-02-05T15:36:35.993Z,0.71
2023-02-05T15:41:41.899Z,0.46
2023-02-05T15:46:44.089Z,0.22
2023-02-05T15:51:47.893Z,-0.07
2023-02-05T15:56:52.655Z,-0.36
2023-02-05T16:02:16.472Z,-0.60
2023-02-05T16:07:27.422Z,-0.90
2023-02-05T16:12:31.343Z,-1.29
2023-02-05T16:17:39.993Z,-1.62
2023-02-05T16:22:52.512Z,-1.89
2023-02-05T16:27:57.864Z,-2.14
2023-02-05T16:33:03.481Z,-2.33
2023-02-05T16:38:09.620Z,-2.43
2023-02-05T16:43:28.737Z,-2.53
2023-02-05T16:48:31.828Z,-2.48
2023-02-05T16:53:36.823Z,-2.61
2023-02-05T16:58:45.606Z,-2.71
2023-02-05T17:03:50.090Z,-2.81
2023-02-05T17:08:55.360Z,-2.90
2023-02-05T17:14:32.980Z,-3.04
2023-02-05T17:19:34.644Z,-3.15
2023-02-05T17:24:36.250Z,-3.18
2023-02-05T17:29:37.941Z,-3.22
2023-02-05T17:34:39.557Z,-3.21
2023-02-05T17:39:41.286Z,-3.33
2023-02-05T17:44:42.874Z,-3.33
2023-02-05T17:49:44.560Z,-3.40
2023-02-05T17:54:46.487Z,-3.41
2023-02-05T17:59:49.076Z,-3.54
2023-02-05T18:04:50.692Z,-3.66
2023-02-05T18:09:52.374Z,-3.78
2023-02-05T18:14:54.614Z,-3.83
2023-02-05T18:19:56.236Z,-3.87
2023-02-05T18:24:57.864Z,-3.97
2023-02-05T18:29:59.519Z,-4.01
2023-02-05T18:35:01.131Z,-4.03
2023-02-05T18:40:02.775Z,-4.07
2023-02-05T18:45:04.688Z,-4.08
2023-02-05T18:50:08.320Z,-4.01
2023-02-05T18:55:12.474Z,-4.00
2023-02-05T19:00:14.542Z,-4.08
2023-02-05T19:05:16.136Z,-4.17
2023-02-05T19:10:18.548Z,-4.31
2023-02-05T19:15:20.206Z,-4.41
2023-02-05T19:20:21.776Z,-4.44
2023-02-05T19:25:24.026Z,-4.43
2023-02-05T19:30:25.619Z,-4.42
2023-02-05T19:35:27.217Z,-4.47
2023-02-05T19:40:28.801Z,-4.50
2023-02-05T19:45:30.524Z,-4.57
2023-02-05T19:50:32.152Z,-4.65
2023-02-05T19:55:34.136Z,-4.72
2023-02-05T20:00:35.935Z,-4.83
2023-02-05T20:05:37.727Z,-5.00
2023-02-05T20:10:39.337Z,-5.05
2023-02-05T20:15:41.022Z,-5.16
2023-02-05T20:20:42.659Z,-5.13
2023-02-05T20:25:52.393Z,-5.09
2023-02-05T20:31:12.667Z,-5.04
2023-02-05T20:36:14.287Z,-5.24
2023-02-05T20:41:18.171Z,-5.30
2023-02-05T20:46:20.091Z,-5.28
2023-02-05T20:51:23.177Z,-5.32
2023-02-05T20:56:27.267Z,-5.37
2023-02-05T21:01:30.520Z,-5.43
2023-02-05T21:06:34.794Z,-5.54
2023-02-05T21:11:37.396Z,-5.58
2023-02-05T21:16:40.346Z,-5.58
2023-02-05T21:21:42.224Z,-5.56
2023-02-05T21:26:46.331Z,-5.63
2023-02-05T21:31:55.825Z,-5.63
2023-02-05T21:36:57.796Z,-5.66
2023-02-05T21:41:59.408Z,-5.71
2023-02-05T21:47:01.037Z,-5.74
2023-02-05T21:52:02.622Z,-5.74
2023-02-05T21:57:04.353Z,-5.76
2023-02-05T22:02:06.504Z,-5.86
2023-02-05T22:07:08.219Z,-5.68
2023-02-05T22:12:09.858Z,-5.78
2023-02-05T22:17:11.448Z,-5.98
2023-02-05T22:22:13.076Z,-6.03
2023-02-05T22:27:14.712Z,-6.13
2023-02-05T22:32:16.321Z,-6.17
2023-02-05T22:37:17.937Z,-6.30
2023-02-05T22:42:19.542Z,-6.33
2023-02-05T22:47:21.155Z,-6.36
2023-02-05T22:52:22.776Z,-6.48
2023-02-05T22:57:24.483Z,-6.65
2023-02-05T23:02:26.096Z,-6.65
2023-02-05T23:07:27.850Z,-6.60
2023-02-05T23:12:29.471Z,-6.68
2023-02-05T23:17:31.139Z,-6.71
2023-02-05T23:22:32.808Z,-6.71
2023-02-05T23:27:34.580Z,-6.74
2023-02-05T23:32:36.253Z,-6.81
2023-02-05T23:37:37.906Z,-6.85
2023-02-05T23:42:39.505Z,-6.84
2023-02-05T23:47:41.149Z,-6.77
2023-02-05T23:52:42.833Z,-6.70
2023-02-05T23:57:44.507Z,-6.64
